sensor_id;sensor_type;location;lat;lon;timestamp;P1;P2;P0
23240;PMS7003;11789;53.482;9.862;2023-07-08T00:00:16;16.00;16.00;12.25
23240;PMS7003;11789;53.482;9.862;2023-07-08T00:02:44;17.50;14.25;11.25
23240;PMS7003;11789;53.482;9.862;2023-07-08T00:05:10;15.25;15.00;12.25
23240;PMS7003;11789;53.482;9.862;2023-07-08T00:07:37;15.00;15.00;12.00
23240;PMS7003;11789;53.482;9.862;2023-07-08T00:10:20;15.75;15.50;12.00
23240;PMS7003;11789;53.482;9.862;2023-07-08T00:12:48;18.00;17.75;12.50
23240;PMS7003;11789;53.482;9.862;2023-07-08T00:15:15;19.50;16.75;13.75
23240;PMS7003;11789;53.482;9.862;2023-07-08T00:17:42;21.00;21.00;16.00
23240;PMS7003;11789;53.482;9.862;2023-07-08T00:20:10;19.50;18.25;13.75
23240;PMS7003;11789;53.482;9.862;2023-07-08T00:22:39;21.50;20.50;14.75
23240;PMS7003;11789;53.482;9.862;2023-07-08T00:25:06;15.00;15.00;12.25
23240;PMS7003;11789;53.482;9.862;2023-07-08T00:27:32;19.00;19.00;14.50
23240;PMS7003;11789;53.482;9.862;2023-07-08T00:29:58;19.50;19.50;13.25
23240;PMS7003;11789;53.482;9.862;2023-07-08T00:32:25;15.25;15.25;12.25
23240;PMS7003;11789;53.482;9.862;2023-07-08T00:34:51;19.25;19.25;14.00
23240;PMS7003;11789;53.482;9.862;2023-07-08T00:37:16;20.75;19.00;13.25
23240;PMS7003;11789;53.482;9.862;2023-07-08T00:39:41;14.50;14.50;11.75
23240;PMS7003;11789;53.482;9.862;2023-07-08T00:42:13;20.75;20.75;14.75
23240;PMS7003;11789;53.482;9.862;2023-07-08T00:44:41;16.50;15.75;13.00
23240;PMS7003;11789;53.482;9.862;2023-07-08T00:47:09;22.50;20.25;14.25
23240;PMS7003;11789;53.482;9.862;2023-07-08T00:49:52;24.75;21.25;15.25
23240;PMS7003;11789;53.482;9.862;2023-07-08T00:52:26;22.50;17.75;14.50
23240;PMS7003;11789;53.482;9.862;2023-07-08T00:54:54;16.25;16.25;14.00
23240;PMS7003;11789;53.482;9.862;2023-07-08T00:57:23;21.50;20.00;15.25
23240;PMS7003;11789;53.482;9.862;2023-07-08T00:59:59;18.50;18.50;12.75
23240;PMS7003;11789;53.482;9.862;2023-07-08T01:02:29;18.00;18.00;14.50
23240;PMS7003;11789;53.482;9.862;2023-07-08T01:05:10;21.75;18.75;14.75
23240;PMS7003;11789;53.482;9.862;2023-07-08T01:07:40;16.25;16.25;12.25
23240;PMS7003;11789;53.482;9.862;2023-07-08T01:10:10;20.50;19.75;14.75
23240;PMS7003;11789;53.482;9.862;2023-07-08T01:12:44;20.75;19.25;14.25
23240;PMS7003;11789;53.482;9.862;2023-07-08T01:15:14;20.50;18.75;14.25
23240;PMS7003;11789;53.482;9.862;2023-07-08T01:17:41;19.50;16.75;13.75
23240;PMS7003;11789;53.482;9.862;2023-07-08T01:20:08;21.75;18.50;15.00
23240;PMS7003;11789;53.482;9.862;2023-07-08T01:22:38;17.50;17.50;14.00
23240;PMS7003;11789;53.482;9.862;2023-07-08T01:25:05;19.25;19.25;13.25
23240;PMS7003;11789;53.482;9.862;2023-07-08T01:27:34;18.75;18.75;14.00
23240;PMS7003;11789;53.482;9.862;2023-07-08T01:30:04;22.00;17.50;13.00
23240;PMS7003;11789;53.482;9.862;2023-07-08T01:32:32;20.75;18.50;13.25
23240;PMS7003;11789;53.482;9.862;2023-07-08T01:35:01;20.25;19.00;14.75
23240;PMS7003;11789;53.482;9.862;2023-07-08T01:37:39;20.00;17.50;13.00
23240;PMS7003;11789;53.482;9.862;2023-07-08T01:40:15;16.75;16.75;12.50
23240;PMS7003;11789;53.482;9.862;2023-07-08T01:42:46;17.50;17.50;13.50
23240;PMS7003;11789;53.482;9.862;2023-07-08T01:45:13;19.50;18.00;13.50
23240;PMS7003;11789;53.482;9.862;2023-07-08T01:47:44;17.75;17.75;13.50
23240;PMS7003;11789;53.482;9.862;2023-07-08T01:50:13;19.25;18.75;13.75
23240;PMS7003;11789;53.482;9.862;2023-07-08T01:52:39;18.25;18.25;13.00
23240;PMS7003;11789;53.482;9.862;2023-07-08T01:55:05;15.00;14.50;11.75
23240;PMS7003;11789;53.482;9.862;2023-07-08T01:57:31;21.00;20.00;15.25
23240;PMS7003;11789;53.482;9.862;2023-07-08T01:59:56;21.00;19.25;14.25
23240;PMS7003;11789;53.482;9.862;2023-07-08T02:02:22;20.75;19.25;13.75
23240;PMS7003;11789;53.482;9.862;2023-07-08T02:04:49;20.25;17.25;13.25
23240;PMS7003;11789;53.482;9.862;2023-07-08T02:07:15;17.25;17.25;14.00
23240;PMS7003;11789;53.482;9.862;2023-07-08T02:09:41;19.75;18.25;14.25
23240;PMS7003;11789;53.482;9.862;2023-07-08T02:12:06;19.75;18.25;14.00
23240;PMS7003;11789;53.482;9.862;2023-07-08T02:14:32;18.75;18.50;13.50
23240;PMS7003;11789;53.482;9.862;2023-07-08T02:16:58;19.00;17.75;13.00
23240;PMS7003;11789;53.482;9.862;2023-07-08T02:19:24;23.25;19.00;14.00
23240;PMS7003;11789;53.482;9.862;2023-07-08T02:21:49;17.50;17.50;13.50
23240;PMS7003;11789;53.482;9.862;2023-07-08T02:24:17;18.50;18.50;14.00
23240;PMS7003;11789;53.482;9.862;2023-07-08T02:26:42;18.25;18.25;13.25
23240;PMS7003;11789;53.482;9.862;2023-07-08T02:29:08;18.75;17.75;14.00
23240;PMS7003;11789;53.482;9.862;2023-07-08T02:31:34;22.50;18.75;14.00
23240;PMS7003;11789;53.482;9.862;2023-07-08T02:33:59;20.75;19.25;14.00
23240;PMS7003;11789;53.482;9.862;2023-07-08T02:36:27;20.25;19.50;16.50
23240;PMS7003;11789;53.482;9.862;2023-07-08T02:38:53;18.25;18.25;13.75
23240;PMS7003;11789;53.482;9.862;2023-07-08T02:41:18;22.25;19.50;14.75
23240;PMS7003;11789;53.482;9.862;2023-07-08T02:43:53;17.75;17.25;13.25
23240;PMS7003;11789;53.482;9.862;2023-07-08T02:46:18;19.50;19.50;14.50
23240;PMS7003;11789;53.482;9.862;2023-07-08T02:48:44;19.00;18.50;14.25
23240;PMS7003;11789;53.482;9.862;2023-07-08T02:51:09;20.25;20.25;14.75
23240;PMS7003;11789;53.482;9.862;2023-07-08T02:53:35;21.50;18.50;13.75
23240;PMS7003;11789;53.482;9.862;2023-07-08T02:56:00;16.50;16.50;13.50
23240;PMS7003;11789;53.482;9.862;2023-07-08T02:58:26;19.50;17.50;13.50
23240;PMS7003;11789;53.482;9.862;2023-07-08T03:00:52;18.75;18.75;13.75
23240;PMS7003;11789;53.482;9.862;2023-07-08T03:03:18;20.25;20.25;16.75
23240;PMS7003;11789;53.482;9.862;2023-07-08T03:05:43;20.00;18.75;15.00
23240;PMS7003;11789;53.482;9.862;2023-07-08T03:08:09;18.00;18.00;13.25
23240;PMS7003;11789;53.482;9.862;2023-07-08T03:10:34;21.75;19.50;15.50
23240;PMS7003;11789;53.482;9.862;2023-07-08T03:13:00;20.00;20.00;15.00
23240;PMS7003;11789;53.482;9.862;2023-07-08T03:15:25;20.25;18.75;15.25
23240;PMS7003;11789;53.482;9.862;2023-07-08T03:17:50;21.25;20.50;15.75
23240;PMS7003;11789;53.482;9.862;2023-07-08T03:20:24;22.00;20.75;13.25
23240;PMS7003;11789;53.482;9.862;2023-07-08T03:22:50;23.50;22.50;17.75
23240;PMS7003;11789;53.482;9.862;2023-07-08T03:25:15;20.75;18.25;15.00
23240;PMS7003;11789;53.482;9.862;2023-07-08T03:27:44;20.00;19.50;15.00
23240;PMS7003;11789;53.482;9.862;2023-07-08T03:30:10;18.75;18.75;13.75
23240;PMS7003;11789;53.482;9.862;2023-07-08T03:32:36;22.25;21.25;16.25
23240;PMS7003;11789;53.482;9.862;2023-07-08T03:35:01;21.25;18.75;15.25
23240;PMS7003;11789;53.482;9.862;2023-07-08T03:37:26;24.25;21.00;16.25
23240;PMS7003;11789;53.482;9.862;2023-07-08T03:39:52;23.50;22.75;17.00
23240;PMS7003;11789;53.482;9.862;2023-07-08T03:42:17;21.50;21.50;15.75
23240;PMS7003;11789;53.482;9.862;2023-07-08T03:44:43;21.00;21.00;17.25
23240;PMS7003;11789;53.482;9.862;2023-07-08T03:47:08;24.25;21.25;16.50
23240;PMS7003;11789;53.482;9.862;2023-07-08T03:49:34;21.50;19.75;15.00
23240;PMS7003;11789;53.482;9.862;2023-07-08T03:51:59;21.00;18.50;15.25
23240;PMS7003;11789;53.482;9.862;2023-07-08T03:54:25;21.00;19.50;14.75
23240;PMS7003;11789;53.482;9.862;2023-07-08T03:56:50;18.25;18.25;12.75
23240;PMS7003;11789;53.482;9.862;2023-07-08T03:59:17;21.00;20.50;13.75
23240;PMS7003;11789;53.482;9.862;2023-07-08T04:01:43;21.75;21.75;16.25
23240;PMS7003;11789;53.482;9.862;2023-07-08T04:04:10;20.25;18.50;16.50
23240;PMS7003;11789;53.482;9.862;2023-07-08T04:06:37;23.75;23.00;17.25
23240;PMS7003;11789;53.482;9.862;2023-07-08T04:09:03;21.00;20.00;15.50
23240;PMS7003;11789;53.482;9.862;2023-07-08T04:11:29;23.75;21.25;18.25
23240;PMS7003;11789;53.482;9.862;2023-07-08T04:13:54;20.25;20.00;15.75
23240;PMS7003;11789;53.482;9.862;2023-07-08T04:16:21;19.00;19.00;14.50
23240;PMS7003;11789;53.482;9.862;2023-07-08T04:18:49;20.50;20.50;16.50
23240;PMS7003;11789;53.482;9.862;2023-07-08T04:21:19;20.50;19.00;14.75
23240;PMS7003;11789;53.482;9.862;2023-07-08T04:23:45;21.75;21.75;16.25
23240;PMS7003;11789;53.482;9.862;2023-07-08T04:26:11;19.50;18.00;13.75
23240;PMS7003;11789;53.482;9.862;2023-07-08T04:28:37;21.50;19.25;15.25
23240;PMS7003;11789;53.482;9.862;2023-07-08T04:31:02;19.75;18.50;14.50
23240;PMS7003;11789;53.482;9.862;2023-07-08T04:33:29;19.75;19.75;16.25
23240;PMS7003;11789;53.482;9.862;2023-07-08T04:35:54;19.50;19.50;15.75
23240;PMS7003;11789;53.482;9.862;2023-07-08T04:38:21;17.75;17.75;13.25
23240;PMS7003;11789;53.482;9.862;2023-07-08T04:40:49;19.50;18.50;14.00
23240;PMS7003;11789;53.482;9.862;2023-07-08T04:43:16;19.50;18.00;13.25
23240;PMS7003;11789;53.482;9.862;2023-07-08T04:45:42;17.25;17.25;13.00
23240;PMS7003;11789;53.482;9.862;2023-07-08T04:48:14;17.50;17.50;13.00
23240;PMS7003;11789;53.482;9.862;2023-07-08T04:50:43;15.25;15.25;11.25
23240;PMS7003;11789;53.482;9.862;2023-07-08T04:53:10;14.50;14.50;12.50
23240;PMS7003;11789;53.482;9.862;2023-07-08T04:55:36;20.50;17.75;13.50
23240;PMS7003;11789;53.482;9.862;2023-07-08T04:58:04;21.75;20.50;13.50
23240;PMS7003;11789;53.482;9.862;2023-07-08T05:00:30;21.25;18.50;14.00
23240;PMS7003;11789;53.482;9.862;2023-07-08T05:02:56;14.00;14.00;11.25
23240;PMS7003;11789;53.482;9.862;2023-07-08T05:05:21;16.00;16.00;11.00
23240;PMS7003;11789;53.482;9.862;2023-07-08T05:07:47;19.00;13.75;10.50
23240;PMS7003;11789;53.482;9.862;2023-07-08T05:10:14;15.00;14.25;11.75
23240;PMS7003;11789;53.482;9.862;2023-07-08T05:12:41;15.25;15.25;11.50
23240;PMS7003;11789;53.482;9.862;2023-07-08T05:15:07;16.00;14.00;11.50
23240;PMS7003;11789;53.482;9.862;2023-07-08T05:17:33;15.50;15.50;12.25
23240;PMS7003;11789;53.482;9.862;2023-07-08T05:19:59;15.75;14.00;12.00
23240;PMS7003;11789;53.482;9.862;2023-07-08T05:22:26;14.25;14.25;11.50
23240;PMS7003;11789;53.482;9.862;2023-07-08T05:24:52;12.50;12.50;10.50
23240;PMS7003;11789;53.482;9.862;2023-07-08T05:27:21;11.75;11.75;9.75
23240;PMS7003;11789;53.482;9.862;2023-07-08T05:29:47;16.25;13.25;11.25
23240;PMS7003;11789;53.482;9.862;2023-07-08T05:32:13;14.00;13.25;10.50
23240;PMS7003;11789;53.482;9.862;2023-07-08T05:34:38;13.00;12.00;9.00
23240;PMS7003;11789;53.482;9.862;2023-07-08T05:37:04;14.75;14.25;11.25
23240;PMS7003;11789;53.482;9.862;2023-07-08T05:39:30;12.25;11.50;8.25
23240;PMS7003;11789;53.482;9.862;2023-07-08T05:41:56;13.00;12.00;10.25
23240;PMS7003;11789;53.482;9.862;2023-07-08T05:44:21;14.75;12.75;10.25
23240;PMS7003;11789;53.482;9.862;2023-07-08T05:46:47;12.75;12.75;10.75
23240;PMS7003;11789;53.482;9.862;2023-07-08T05:49:14;12.25;10.50;9.00
23240;PMS7003;11789;53.482;9.862;2023-07-08T05:51:39;12.00;12.00;10.50
23240;PMS7003;11789;53.482;9.862;2023-07-08T05:54:05;12.50;10.75;9.25
23240;PMS7003;11789;53.482;9.862;2023-07-08T05:56:31;11.50;11.50;9.00
23240;PMS7003;11789;53.482;9.862;2023-07-08T05:58:56;9.50;9.50;8.00
23240;PMS7003;11789;53.482;9.862;2023-07-08T06:01:22;11.25;9.50;7.50
23240;PMS7003;11789;53.482;9.862;2023-07-08T06:03:47;11.50;11.50;9.25
23240;PMS7003;11789;53.482;9.862;2023-07-08T06:06:13;12.25;10.75;9.25
23240;PMS7003;11789;53.482;9.862;2023-07-08T06:08:38;11.00;10.00;9.00
23240;PMS7003;11789;53.482;9.862;2023-07-08T06:11:04;13.25;11.75;9.00
23240;PMS7003;11789;53.482;9.862;2023-07-08T06:13:29;10.25;10.25;9.00
23240;PMS7003;11789;53.482;9.862;2023-07-08T06:15:55;13.25;12.50;9.75
23240;PMS7003;11789;53.482;9.862;2023-07-08T06:18:20;11.50;11.50;9.25
23240;PMS7003;11789;53.482;9.862;2023-07-08T06:20:53;9.25;9.25;7.25
23240;PMS7003;11789;53.482;9.862;2023-07-08T06:23:20;10.00;8.75;7.25
23240;PMS7003;11789;53.482;9.862;2023-07-08T06:25:46;14.50;13.25;10.50
23240;PMS7003;11789;53.482;9.862;2023-07-08T06:28:11;11.50;11.50;8.50
23240;PMS7003;11789;53.482;9.862;2023-07-08T06:30:36;10.25;10.25;8.00
23240;PMS7003;11789;53.482;9.862;2023-07-08T06:33:02;12.50;10.25;8.00
23240;PMS7003;11789;53.482;9.862;2023-07-08T06:35:28;10.50;10.50;8.50
23240;PMS7003;11789;53.482;9.862;2023-07-08T06:37:54;9.25;9.25;8.00
23240;PMS7003;11789;53.482;9.862;2023-07-08T06:40:19;10.50;10.50;9.25
23240;PMS7003;11789;53.482;9.862;2023-07-08T06:42:45;12.50;10.50;9.00
23240;PMS7003;11789;53.482;9.862;2023-07-08T06:45:11;12.75;11.25;10.00
23240;PMS7003;11789;53.482;9.862;2023-07-08T06:47:36;10.25;10.25;8.75
23240;PMS7003;11789;53.482;9.862;2023-07-08T06:50:02;9.75;9.75;8.25
23240;PMS7003;11789;53.482;9.862;2023-07-08T06:52:28;10.75;10.00;8.00
23240;PMS7003;11789;53.482;9.862;2023-07-08T06:54:59;9.00;9.00;7.25
23240;PMS7003;11789;53.482;9.862;2023-07-08T06:57:28;14.00;10.00;8.00
23240;PMS7003;11789;53.482;9.862;2023-07-08T06:59:54;9.33;9.33;8.00
23240;PMS7003;11789;53.482;9.862;2023-07-08T07:02:19;12.25;12.00;8.50
23240;PMS7003;11789;53.482;9.862;2023-07-08T07:04:45;11.50;9.75;7.50
23240;PMS7003;11789;53.482;9.862;2023-07-08T07:07:11;9.33;9.33;8.00
23240;PMS7003;11789;53.482;9.862;2023-07-08T07:09:36;10.00;10.00;8.00
23240;PMS7003;11789;53.482;9.862;2023-07-08T07:12:02;10.75;9.75;8.25
23240;PMS7003;11789;53.482;9.862;2023-07-08T07:14:28;8.25;8.00;6.75
23240;PMS7003;11789;53.482;9.862;2023-07-08T07:16:54;11.00;10.00;8.00
23240;PMS7003;11789;53.482;9.862;2023-07-08T07:19:19;12.00;10.50;9.25
23240;PMS7003;11789;53.482;9.862;2023-07-08T07:21:46;10.25;10.25;9.00
23240;PMS7003;11789;53.482;9.862;2023-07-08T07:24:12;7.00;7.00;6.00
23240;PMS7003;11789;53.482;9.862;2023-07-08T07:26:37;9.33;9.33;8.00
23240;PMS7003;11789;53.482;9.862;2023-07-08T07:29:03;10.67;10.00;9.00
23240;PMS7003;11789;53.482;9.862;2023-07-08T07:31:29;12.00;9.00;8.00
23240;PMS7003;11789;53.482;9.862;2023-07-08T07:33:54;9.00;9.00;8.00
23240;PMS7003;11789;53.482;9.862;2023-07-08T07:36:21;9.67;9.67;8.00
23240;PMS7003;11789;53.482;9.862;2023-07-08T07:38:47;12.00;10.00;9.00
23240;PMS7003;11789;53.482;9.862;2023-07-08T07:41:12;10.00;9.00;8.33
23240;PMS7003;11789;53.482;9.862;2023-07-08T07:43:38;11.33;10.00;9.33
23240;PMS7003;11789;53.482;9.862;2023-07-08T07:46:03;12.33;11.00;9.33
23240;PMS7003;11789;53.482;9.862;2023-07-08T07:48:30;10.33;10.33;9.00
23240;PMS7003;11789;53.482;9.862;2023-07-08T07:50:57;10.33;10.33;9.00
23240;PMS7003;11789;53.482;9.862;2023-07-08T07:53:22;10.67;9.00;8.00
23240;PMS7003;11789;53.482;9.862;2023-07-08T07:55:48;7.00;7.00;7.00
23240;PMS7003;11789;53.482;9.862;2023-07-08T07:58:20;9.00;9.00;8.00
23240;PMS7003;11789;53.482;9.862;2023-07-08T08:00:45;10.67;9.00;7.00
23240;PMS7003;11789;53.482;9.862;2023-07-08T08:03:11;13.00;10.00;9.00
23240;PMS7003;11789;53.482;9.862;2023-07-08T08:05:37;10.67;10.33;9.00
23240;PMS7003;11789;53.482;9.862;2023-07-08T08:08:02;12.33;11.00;9.00
23240;PMS7003;11789;53.482;9.862;2023-07-08T08:10:29;7.33;7.33;6.33
23240;PMS7003;11789;53.482;9.862;2023-07-08T08:12:55;8.67;8.67;7.00
23240;PMS7003;11789;53.482;9.862;2023-07-08T08:15:21;11.00;11.00;9.00
23240;PMS7003;11789;53.482;9.862;2023-07-08T08:17:47;10.00;10.00;9.00
23240;PMS7003;11789;53.482;9.862;2023-07-08T08:20:14;11.00;11.00;8.75
23240;PMS7003;11789;53.482;9.862;2023-07-08T08:22:40;9.00;9.00;8.00
23240;PMS7003;11789;53.482;9.862;2023-07-08T08:25:05;10.00;9.00;8.00
23240;PMS7003;11789;53.482;9.862;2023-07-08T08:27:31;11.75;10.25;9.00
23240;PMS7003;11789;53.482;9.862;2023-07-08T08:29:57;9.00;9.00;7.67
23240;PMS7003;11789;53.482;9.862;2023-07-08T08:32:22;12.67;11.00;8.67
23240;PMS7003;11789;53.482;9.862;2023-07-08T08:34:48;10.00;10.00;9.67
23240;PMS7003;11789;53.482;9.862;2023-07-08T08:37:13;11.00;11.00;9.00
23240;PMS7003;11789;53.482;9.862;2023-07-08T08:39:39;10.00;10.00;8.67
23240;PMS7003;11789;53.482;9.862;2023-07-08T08:42:07;8.67;8.67;7.67
23240;PMS7003;11789;53.482;9.862;2023-07-08T08:45:00;9.50;9.50;8.50
23240;PMS7003;11789;53.482;9.862;2023-07-08T08:47:38;10.00;10.00;8.33
23240;PMS7003;11789;53.482;9.862;2023-07-08T08:53:11;10.75;10.75;9.75
23240;PMS7003;11789;53.482;9.862;2023-07-08T08:55:40;12.00;12.00;9.50
23240;PMS7003;11789;53.482;9.862;2023-07-08T09:05:57;11.50;9.25;8.25
23240;PMS7003;11789;53.482;9.862;2023-07-08T09:08:31;8.50;8.50;8.25
23240;PMS7003;11789;53.482;9.862;2023-07-08T09:11:00;11.00;9.75;8.75
23240;PMS7003;11789;53.482;9.862;2023-07-08T09:13:35;9.00;9.00;7.75
23240;PMS7003;11789;53.482;9.862;2023-07-08T09:16:20;11.25;11.25;9.25
23240;PMS7003;11789;53.482;9.862;2023-07-08T09:21:43;8.75;8.75;7.75
23240;PMS7003;11789;53.482;9.862;2023-07-08T09:24:19;12.00;12.00;8.00
23240;PMS7003;11789;53.482;9.862;2023-07-08T09:26:52;11.00;11.00;9.00
23240;PMS7003;11789;53.482;9.862;2023-07-08T09:29:22;10.50;10.50;9.00
23240;PMS7003;11789;53.482;9.862;2023-07-08T09:31:48;11.25;10.75;9.00
23240;PMS7003;11789;53.482;9.862;2023-07-08T09:34:21;12.33;11.00;9.00
23240;PMS7003;11789;53.482;9.862;2023-07-08T09:36:48;12.00;10.50;8.75
23240;PMS7003;11789;53.482;9.862;2023-07-08T09:39:16;10.50;10.50;8.75
23240;PMS7003;11789;53.482;9.862;2023-07-08T09:41:43;10.50;10.50;8.75
23240;PMS7003;11789;53.482;9.862;2023-07-08T09:44:20;10.25;10.25;8.75
23240;PMS7003;11789;53.482;9.862;2023-07-08T09:46:55;13.25;11.75;10.00
23240;PMS7003;11789;53.482;9.862;2023-07-08T09:49:23;9.00;8.75;8.00
23240;PMS7003;11789;53.482;9.862;2023-07-08T09:51:53;11.25;11.25;9.25
23240;PMS7003;11789;53.482;9.862;2023-07-08T09:54:19;10.00;10.00;8.33
23240;PMS7003;11789;53.482;9.862;2023-07-08T09:56:55;11.00;9.25;8.50
23240;PMS7003;11789;53.482;9.862;2023-07-08T09:59:28;9.25;9.25;8.50
23240;PMS7003;11789;53.482;9.862;2023-07-08T10:01:59;10.00;10.00;8.25
23240;PMS7003;11789;53.482;9.862;2023-07-08T10:04:26;10.50;10.50;9.00
23240;PMS7003;11789;53.482;9.862;2023-07-08T10:06:51;11.00;10.00;8.00
23240;PMS7003;11789;53.482;9.862;2023-07-08T10:09:20;11.00;11.00;9.25
23240;PMS7003;11789;53.482;9.862;2023-07-08T10:11:58;9.25;9.25;8.25
23240;PMS7003;11789;53.482;9.862;2023-07-08T10:14:32;10.25;10.25;8.75
23240;PMS7003;11789;53.482;9.862;2023-07-08T10:17:03;9.25;9.25;8.25
23240;PMS7003;11789;53.482;9.862;2023-07-08T10:19:29;11.00;11.00;9.00
23240;PMS7003;11789;53.482;9.862;2023-07-08T10:33:04;13.50;12.00;10.25
23240;PMS7003;11789;53.482;9.862;2023-07-08T10:41:12;13.75;12.00;10.00
23240;PMS7003;11789;53.482;9.862;2023-07-08T10:43:59;10.25;10.25;9.50
23240;PMS7003;11789;53.482;9.862;2023-07-08T10:47:05;11.50;11.50;10.00
23240;PMS7003;11789;53.482;9.862;2023-07-08T10:53:09;11.25;11.25;9.50
23240;PMS7003;11789;53.482;9.862;2023-07-08T10:55:42;11.00;11.00;9.75
23240;PMS7003;11789;53.482;9.862;2023-07-08T11:03:53;12.00;12.00;10.00
23240;PMS7003;11789;53.482;9.862;2023-07-08T11:06:29;12.75;12.75;9.75
23240;PMS7003;11789;53.482;9.862;2023-07-08T11:09:27;9.75;9.75;8.25
23240;PMS7003;11789;53.482;9.862;2023-07-08T11:17:38;11.25;11.25;10.25
23240;PMS7003;11789;53.482;9.862;2023-07-08T11:20:16;12.25;12.25;10.25
23240;PMS7003;11789;53.482;9.862;2023-07-08T11:22:52;11.00;11.00;10.00
23240;PMS7003;11789;53.482;9.862;2023-07-08T11:25:23;13.50;13.00;10.00
23240;PMS7003;11789;53.482;9.862;2023-07-08T11:27:52;12.25;12.25;10.25
23240;PMS7003;11789;53.482;9.862;2023-07-08T11:30:22;12.25;12.25;10.00
23240;PMS7003;11789;53.482;9.862;2023-07-08T11:32:57;12.00;12.00;10.50
23240;PMS7003;11789;53.482;9.862;2023-07-08T11:35:37;12.50;10.75;9.00
23240;PMS7003;11789;53.482;9.862;2023-07-08T11:38:05;13.00;11.00;9.50
23240;PMS7003;11789;53.482;9.862;2023-07-08T11:43:41;11.50;11.50;10.00
23240;PMS7003;11789;53.482;9.862;2023-07-08T11:46:18;12.25;11.75;9.25
23240;PMS7003;11789;53.482;9.862;2023-07-08T11:48:47;11.50;11.50;10.00
23240;PMS7003;11789;53.482;9.862;2023-07-08T11:51:17;10.25;10.25;8.25
23240;PMS7003;11789;53.482;9.862;2023-07-08T11:56:47;11.33;11.33;10.00
23240;PMS7003;11789;53.482;9.862;2023-07-08T11:59:19;11.00;11.00;8.75
23240;PMS7003;11789;53.482;9.862;2023-07-08T12:04:24;10.50;10.50;8.75
23240;PMS7003;11789;53.482;9.862;2023-07-08T12:07:02;7.00;7.00;6.00
23240;PMS7003;11789;53.482;9.862;2023-07-08T12:09:59;11.25;10.00;8.00
23240;PMS7003;11789;53.482;9.862;2023-07-08T12:12:55;9.25;9.25;8.00
23240;PMS7003;11789;53.482;9.862;2023-07-08T12:15:30;9.67;8.33;7.00
23240;PMS7003;11789;53.482;9.862;2023-07-08T12:18:02;7.50;7.50;6.50
23240;PMS7003;11789;53.482;9.862;2023-07-08T12:20:36;8.25;8.25;7.00
23240;PMS7003;11789;53.482;9.862;2023-07-08T12:23:11;9.75;9.00;8.00
23240;PMS7003;11789;53.482;9.862;2023-07-08T12:25:38;10.00;10.00;9.00
23240;PMS7003;11789;53.482;9.862;2023-07-08T12:28:04;8.33;8.33;7.33
23240;PMS7003;11789;53.482;9.862;2023-07-08T12:30:30;9.00;9.00;8.00
23240;PMS7003;11789;53.482;9.862;2023-07-08T12:32:58;8.50;8.50;7.75
23240;PMS7003;11789;53.482;9.862;2023-07-08T12:35:26;10.00;10.00;8.75
23240;PMS7003;11789;53.482;9.862;2023-07-08T12:37:58;9.50;9.50;7.50
23240;PMS7003;11789;53.482;9.862;2023-07-08T12:40:26;11.00;9.50;7.75
23240;PMS7003;11789;53.482;9.862;2023-07-08T12:42:53;11.25;10.25;7.50
23240;PMS7003;11789;53.482;9.862;2023-07-08T12:45:21;7.25;7.25;6.25
23240;PMS7003;11789;53.482;9.862;2023-07-08T12:47:49;8.25;8.25;7.50
23240;PMS7003;11789;53.482;9.862;2023-07-08T12:50:14;9.00;9.00;8.33
23240;PMS7003;11789;53.482;9.862;2023-07-08T12:52:42;11.50;10.00;9.25
23240;PMS7003;11789;53.482;9.862;2023-07-08T12:55:10;10.25;10.25;8.25
23240;PMS7003;11789;53.482;9.862;2023-07-08T12:57:37;10.75;9.00;7.25
23240;PMS7003;11789;53.482;9.862;2023-07-08T13:00:05;10.00;10.00;8.50
23240;PMS7003;11789;53.482;9.862;2023-07-08T13:02:31;9.25;9.25;8.50
23240;PMS7003;11789;53.482;9.862;2023-07-08T13:04:59;10.25;9.75;8.75
23240;PMS7003;11789;53.482;9.862;2023-07-08T13:07:34;11.00;11.00;10.00
23240;PMS7003;11789;53.482;9.862;2023-07-08T13:10:04;10.00;10.00;8.25
23240;PMS7003;11789;53.482;9.862;2023-07-08T13:12:32;13.00;12.00;10.00
23240;PMS7003;11789;53.482;9.862;2023-07-08T13:15:03;11.50;10.00;8.00
23240;PMS7003;11789;53.482;9.862;2023-07-08T13:17:34;9.75;9.75;8.25
23240;PMS7003;11789;53.482;9.862;2023-07-08T13:20:02;10.25;10.25;9.00
23240;PMS7003;11789;53.482;9.862;2023-07-08T13:22:28;10.50;10.50;8.75
23240;PMS7003;11789;53.482;9.862;2023-07-08T13:24:59;10.00;10.00;8.25
23240;PMS7003;11789;53.482;9.862;2023-07-08T13:27:26;9.75;9.75;8.75
23240;PMS7003;11789;53.482;9.862;2023-07-08T13:29:52;11.00;11.00;9.67
23240;PMS7003;11789;53.482;9.862;2023-07-08T13:32:19;9.75;9.75;8.75
23240;PMS7003;11789;53.482;9.862;2023-07-08T13:34:48;11.00;11.00;9.33
23240;PMS7003;11789;53.482;9.862;2023-07-08T13:37:15;11.50;11.00;9.25
23240;PMS7003;11789;53.482;9.862;2023-07-08T13:39:44;11.33;11.33;9.33
23240;PMS7003;11789;53.482;9.862;2023-07-08T13:42:11;13.75;10.25;9.25
23240;PMS7003;11789;53.482;9.862;2023-07-08T13:44:43;11.33;11.33;9.67
23240;PMS7003;11789;53.482;9.862;2023-07-08T13:47:21;11.00;11.00;9.75
23240;PMS7003;11789;53.482;9.862;2023-07-08T13:49:56;11.00;11.00;9.75
23240;PMS7003;11789;53.482;9.862;2023-07-08T13:52:30;11.25;11.25;9.00
23240;PMS7003;11789;53.482;9.862;2023-07-08T13:54:59;11.67;11.67;10.00
23240;PMS7003;11789;53.482;9.862;2023-07-08T13:57:29;12.00;12.00;10.25
23240;PMS7003;11789;53.482;9.862;2023-07-08T13:59:59;12.75;12.75;10.50
23240;PMS7003;11789;53.482;9.862;2023-07-08T14:02:26;11.33;11.33;10.00
23240;PMS7003;11789;53.482;9.862;2023-07-08T14:04:54;12.25;12.25;9.75
23240;PMS7003;11789;53.482;9.862;2023-07-08T14:07:23;10.50;10.00;9.00
23240;PMS7003;11789;53.482;9.862;2023-07-08T14:09:51;13.00;12.25;11.00
23240;PMS7003;11789;53.482;9.862;2023-07-08T14:12:17;10.67;10.67;8.33
23240;PMS7003;11789;53.482;9.862;2023-07-08T14:14:43;11.00;10.00;9.00
23240;PMS7003;11789;53.482;9.862;2023-07-08T14:17:09;13.67;13.00;11.00
23240;PMS7003;11789;53.482;9.862;2023-07-08T14:19:37;13.75;13.75;11.25
23240;PMS7003;11789;53.482;9.862;2023-07-08T14:24:38;8.75;8.75;7.25
23240;PMS7003;11789;53.482;9.862;2023-07-08T14:27:05;12.00;12.00;9.75
23240;PMS7003;11789;53.482;9.862;2023-07-08T14:29:36;10.25;10.25;8.50
23240;PMS7003;11789;53.482;9.862;2023-07-08T14:32:02;12.00;10.67;9.67
23240;PMS7003;11789;53.482;9.862;2023-07-08T14:34:28;11.33;11.33;9.67
23240;PMS7003;11789;53.482;9.862;2023-07-08T14:36:53;11.00;11.00;10.00
23240;PMS7003;11789;53.482;9.862;2023-07-08T14:39:19;14.00;14.00;11.33
23240;PMS7003;11789;53.482;9.862;2023-07-08T14:41:46;15.25;12.50;10.50
23240;PMS7003;11789;53.482;9.862;2023-07-08T14:44:24;12.75;11.75;9.75
23240;PMS7003;11789;53.482;9.862;2023-07-08T14:46:55;15.50;14.75;11.50
23240;PMS7003;11789;53.482;9.862;2023-07-08T14:49:22;12.75;12.00;9.75
23240;PMS7003;11789;53.482;9.862;2023-07-08T14:51:48;13.75;13.75;11.25
23240;PMS7003;11789;53.482;9.862;2023-07-08T14:54:14;12.50;12.50;10.25
23240;PMS7003;11789;53.482;9.862;2023-07-08T14:56:40;10.67;10.67;9.67
23240;PMS7003;11789;53.482;9.862;2023-07-08T14:59:07;12.00;12.00;10.25